PATC/TNC METAR and TAF weather

Enter ICAO airport designator
Station Type Date Time Source
PATC METAR 2020/11/25 23:08 UTC NOAA

PATC 252308Z AUTO 22008KT 1/4SM -SN FG VV004 M01/M01 A2867 RMK AO2 SLP713


Station Type Date Time Source
PATC Decoded METAR 2020/11/25 23:08 UTC NOAA

Tin City Airways Facilities Sector, AK, United States (PATC) 65-34N 167-55W
Nov 25, 2020 - 06:08 PM EST / 2020.11.25 2308 UTC
Wind: from the SW (220 degrees) at 9 MPH (8 KT):0
Visibility: 1/4 mile(s):0
Sky conditions: obscured
Weather: light snow; fog
Temperature: 30 F (-1 C)
Windchill: 21 F (-6 C):1
Dew Point: 30 F (-1 C)
Relative Humidity: 100%
Pressure (altimeter): 28.67 in. Hg (970 hPa)
ob: PATC 252308Z AUTO 22008KT 1/4SM -SN FG VV004 M01/M01 A2867 RMK AO2 SLP713
cycle: 23

Station Type Date Time Source
PATC TAF 2016/08/27 04:12 UTC NOAA

TAF PATC 270400Z 2704/2810 18012G18KT 0400 FG OVC002 QNH3015INS TX10/2718Z TN06/2710Z

Example: see airport list